Time;durP1;ratioP1;P1;durP2;ratioP2;P2;SDS_P1;SDS_P2;PMS_P1;PMS_P2;Temp;Humidity;BMP_temperature;BMP_pressure;BME280_temperature;BME280_humidity;BME280_pressure;Samples;Min_cycle;Max_cycle;Signal;HPM_P1;HPM_P2
2022/01/27 00:00:43;;;;;;;90.70;3.92;;;5.10;39.10;;;;;;6153180;23;20157;-73
2022/01/27 00:05:49;;;;;;;71.03;2.85;;;;;;;;;;6153118;23;20488;-73
2022/01/27 00:08:21;;;;;;;136.52;4.85;;;;;;;;;;6151287;23;20169;-73
2022/01/27 00:11:02;;;;;;;48.45;2.35;;;;;;;;;;6152997;23;20138;-75
2022/01/27 00:13:42;;;;;;;104.82;3.92;;;;;;;;;;6126067;23;20204;-72
2022/01/27 00:16:27;;;;;;;142.45;5.20;;;;;;;;;;6151840;23;20137;-73
2022/01/27 00:18:54;;;;;;;200.25;6.10;;;;;;;;;;6150951;23;20664;-80
2022/01/27 00:21:25;;;;;;;94.95;5.57;;;4.00;43.80;;;;;;6151771;23;20617;-73
2022/01/27 00:23:51;;;;;;;56.95;3.22;;;;;;;;;;6153039;23;20173;-76
2022/01/27 00:26:18;;;;;;;84.30;4.30;;;4.00;43.80;;;;;;6153188;23;20485;-74
2022/01/27 00:28:45;;;;;;;47.55;4.68;;;;;;;;;;6153820;23;20232;-72
2022/01/27 00:31:12;;;;;;;78.32;5.03;;;4.10;43.90;;;;;;6153463;23;20153;-73
2022/01/27 00:33:38;;;;;;;52.50;3.72;;;3.90;43.70;;;;;;6153399;23;20178;-72
2022/01/27 00:36:04;;;;;;;85.50;6.22;;;;;;;;;;6152684;23;20591;-73
2022/01/27 00:38:30;;;;;;;49.55;2.45;;;2.80;48.10;;;;;;6152842;23;20180;-72
2022/01/27 00:40:56;;;;;;;38.23;3.40;;;2.40;51.30;;;;;;6153432;23;20177;-72
2022/01/27 00:43:22;;;;;;;43.13;3.47;;;2.50;50.00;;;;;;6153371;23;20392;-72
2022/01/27 00:45:48;;;;;;;50.87;2.50;;;;;;;;;;6153709;23;20152;-75
2022/01/27 00:48:16;;;;;;;64.43;4.30;;;;;;;;;;6152344;23;20156;-76
2022/01/27 00:50:42;;;;;;;44.53;3.00;;;3.70;46.60;;;;;;6153910;23;20193;-73
2022/01/27 00:53:26;;;;;;;46.92;2.60;;;;;;;;;;6153723;23;20555;-74
2022/01/27 00:55:53;;;;;;;59.75;4.35;;;;;;;;;;6153802;23;20134;-76
2022/01/27 01:01:08;;;;;;;51.28;3.72;;;4.80;41.90;;;;;;6163509;23;20138;-73
2022/01/27 01:03:40;;;;;;;26.92;3.83;;;;;;;;;;6153286;23;20233;-76
2022/01/27 01:06:32;;;;;;;139.45;6.50;;;5.10;39.50;;;;;;6152626;23;20475;-73
2022/01/27 01:22:02;;;;;;;51.33;2.78;;;4.00;42.00;;;;;;6154965;23;20600;-73
2022/01/27 01:30:07;;;;;;;61.13;4.55;;;3.80;43.30;;;;;;6155018;23;20586;-72
2022/01/27 01:35:06;;;;;;;48.85;3.20;;;4.10;42.60;;;;;;6154550;23;20162;-73
2022/01/27 01:37:37;;;;;;;49.15;3.47;;;3.80;42.40;;;;;;6154644;23;20169;-73
2022/01/27 01:40:05;;;;;;;50.25;3.53;;;3.60;43.40;;;;;;6154887;23;20141;-72
2022/01/27 01:42:31;;;;;;;34.67;3.75;;;;;;;;;;6128715;23;20187;-72
2022/01/27 01:45:01;;;;;;;37.55;3.30;;;;;;;;;;6155188;23;20177;-73
2022/01/27 01:47:27;;;;;;;44.75;3.80;;;;;;;;;;6129279;23;20154;-73
2022/01/27 01:49:53;;;;;;;52.40;2.45;;;;;;;;;;6155007;23;20154;-72
2022/01/27 01:52:19;;;;;;;55.97;2.85;;;;;;;;;;6154506;23;20173;-73
2022/01/27 01:54:45;;;;;;;47.55;3.63;;;;;;;;;;6154696;23;20233;-72
2022/01/27 01:57:11;;;;;;;52.40;3.85;;;3.80;42.30;;;;;;6154437;23;20244;-73
2022/01/27 01:59:37;;;;;;;40.63;2.90;;;;;;;;;;6154796;23;20596;-73
2022/01/27 02:02:03;;;;;;;58.10;3.90;;;;;;;;;;6154431;23;20401;-72
2022/01/27 02:04:29;;;;;;;80.22;6.03;;;;;;;;;;6154644;23;20604;-74
2022/01/27 02:07:00;;;;;;;37.60;2.88;;;;;;;;;;6128158;23;20172;-72
2022/01/27 02:20:23;;;;;;;80.50;4.43;;;3.00;45.40;;;;;;6153365;23;20145;-72
2022/01/27 02:22:49;;;;;;;59.23;3.00;;;;;;;;;;6128281;23;20177;-73
2022/01/27 02:25:15;;;;;;;59.58;3.75;;;;;;;;;;6154103;23;20659;-74
2022/01/27 02:27:41;;;;;;;45.40;4.70;;;;;;;;;;6154308;23;20184;-77
2022/01/27 02:30:07;;;;;;;59.75;2.72;;;;;;;;;;6153439;23;20957;-76
2022/01/27 02:32:33;;;;;;;62.67;3.95;;;;;;;;;;6153519;23;20256;-74
2022/01/27 02:35:00;;;;;;;39.67;2.97;;;;;;;;;;6154200;23;20154;-78
2022/01/27 02:37:25;;;;;;;61.45;4.85;;;3.60;43.90;;;;;;6154063;23;20173;-73
2022/01/27 02:39:51;;;;;;;56.53;3.57;;;3.90;41.90;;;;;;6154304;23;20176;-73
2022/01/27 02:42:21;;;;;;;49.53;3.37;;;;;;;;;;6154223;23;20646;-72
2022/01/27 02:44:47;;;;;;;33.67;2.00;;;;;;;;;;6154727;23;20622;-76
2022/01/27 02:47:14;;;;;;;64.33;3.03;;;3.10;43.00;;;;;;6154734;23;20225;-72
2022/01/27 02:49:40;;;;;;;38.33;2.47;;;2.00;48.80;;;;;;6154478;23;20377;-72
2022/01/27 02:52:06;;;;;;;48.83;2.57;;;1.20;56.20;;;;;;6154237;23;20168;-72
2022/01/27 02:54:31;;;;;;;51.72;2.83;;;0.90;59.80;;;;;;6154259;23;20865;-72
2022/01/27 02:56:57;;;;;;;50.07;4.43;;;;;;;;;;6153785;23;20173;-75
2022/01/27 02:59:24;;;;;;;85.00;4.55;;;;;;;;;;6153461;23;20177;-75
2022/01/27 03:01:51;;;;;;;59.70;3.75;;;1.20;57.80;;;;;;6154278;23;20224;-75
2022/01/27 03:04:17;;;;;;;53.20;3.92;;;;;;;;;;6154044;23;20152;-72
2022/01/27 03:06:45;;;;;;;46.47;2.22;;;2.30;52.50;;;;;;6153501;23;20146;-73
2022/01/27 03:09:11;;;;;;;38.90;2.70;;;2.80;49.10;;;;;;6154027;23;20149;-72
2022/01/27 03:12:01;;;;;;;59.90;3.65;;;3.30;45.90;;;;;;6127626;23;20599;-73
2022/01/27 03:14:29;;;;;;;58.15;2.95;;;3.50;45.10;;;;;;6153774;23;20142;-72
2022/01/27 03:16:58;;;;;;;46.50;2.47;;;3.70;43.50;;;;;;6153794;23;20265;-73
2022/01/27 03:19:25;;;;;;;65.68;3.33;;;3.70;43.00;;;;;;6153613;23;20232;-73
2022/01/27 03:21:51;;;;;;;45.03;3.47;;;4.10;41.40;;;;;;6127714;23;20157;-73
2022/01/27 03:24:18;;;;;;;53.78;2.70;;;;;;;;;;6153822;23;20200;-73
2022/01/27 03:26:44;;;;;;;57.20;3.40;;;3.60;42.70;;;;;;6153736;23;20866;-73
2022/01/27 03:29:10;;;;;;;53.03;3.85;;;;;;;;;;6127700;23;20232;-73
2022/01/27 03:31:36;;;;;;;50.78;4.28;;;;;;;;;;6153575;23;20601;-72
2022/01/27 03:34:02;;;;;;;37.83;2.65;;;;;;;;;;6153856;23;20169;-72
2022/01/27 03:36:28;;;;;;;66.18;2.75;;;;;;;;;;6153497;23;20152;-72
2022/01/27 03:38:54;;;;;;;41.42;3.40;;;;;;;;;;6153438;23;20175;-75
2022/01/27 03:41:22;;;;;;;71.75;4.68;;;;;;;;;;6127525;23;20161;-72
2022/01/27 03:43:49;;;;;;;46.40;2.35;;;2.90;47.00;;;;;;6153552;23;20176;-72
2022/01/27 03:46:16;;;;;;;128.30;6.40;;;3.30;44.90;;;;;;6127175;23;20157;-73
2022/01/27 03:48:42;;;;;;;58.13;3.20;;;2.50;47.00;;;;;;6153590;23;20184;-72
2022/01/27 03:51:08;;;;;;;62.25;5.20;;;2.20;49.00;;;;;;6153491;23;20150;-72
2022/01/27 03:53:34;;;;;;;53.20;2.40;;;;;;;;;;6153533;23;20183;-72
2022/01/27 03:56:00;;;;;;;45.58;3.63;;;;;;;;;;6153480;23;20161;-76
2022/01/27 03:58:26;;;;;;;51.28;2.90;;;3.20;44.30;;;;;;6153611;23;20173;-72
2022/01/27 04:00:52;;;;;;;31.27;3.27;;;3.10;44.60;;;;;;6153616;23;20156;-72
2022/01/27 04:03:19;;;;;;;55.70;3.60;;;;;;;;;;6127534;23;20559;-73
2022/01/27 04:05:54;;;;;;;47.92;4.47;;;;;;;;;;6127447;23;20477;-72
2022/01/27 04:08:21;;;;;;;88.78;4.28;;;2.50;46.80;;;;;;6153264;23;20148;-72
2022/01/27 04:10:47;;;;;;;89.32;3.20;;;;;;;;;;6153424;23;20157;-72
2022/01/27 04:13:14;;;;;;;68.88;3.75;;;;;;;;;;6153419;23;20189;-72
2022/01/27 04:15:42;;;;;;;50.92;2.85;;;2.50;46.90;;;;;;6153592;23;20154;-73
2022/01/27 04:18:11;;;;;;;42.80;2.50;;;2.90;45.80;;;;;;6153582;23;20173;-75
2022/01/27 04:20:41;;;;;;;78.70;5.00;;;3.00;45.00;;;;;;6153525;23;20180;-73
2022/01/27 04:23:08;;;;;;;63.90;2.88;;;;;;;;;;6153359;23;20172;-72
2022/01/27 04:25:36;;;;;;;51.95;3.45;;;3.20;43.80;;;;;;6153794;23;20149;-75
2022/01/27 04:28:06;;;;;;;61.83;3.83;;;2.70;45.20;;;;;;6153336;23;20176;-73
2022/01/27 04:30:32;;;;;;;50.90;3.47;;;;;;;;;;6153500;23;20623;-72
2022/01/27 04:33:01;;;;;;;42.88;2.92;;;;;;;;;;6155108;23;20180;-74
2022/01/27 04:35:31;;;;;;;48.40;3.03;;;2.40;47.40;;;;;;6153758;23;20156;-75
2022/01/27 04:38:07;;;;;;;61.17;4.15;;;2.90;45.10;;;;;;6153293;23;20173;-76
2022/01/27 04:40:44;;;;;;;42.40;2.72;;;3.20;43.30;;;;;;6151487;23;20188;-76
2022/01/27 04:48:46;;;;;;;54.72;3.97;;;;;;;;;;6092513;23;20184;-75
2022/01/27 04:51:15;;;;;;;46.50;3.65;;;3.50;41.40;;;;;;6094404;23;20135;-76
2022/01/27 04:53:48;;;;;;;61.65;2.83;;;3.40;41.40;;;;;;6094036;23;20237;-76
2022/01/27 04:56:15;;;;;;;128.98;6.55;;;3.50;41.20;;;;;;6093785;23;20136;-76
2022/01/27 04:58:44;;;;;;;82.03;3.90;;;;;;;;;;6094294;23;20273;-76
2022/01/27 05:01:10;;;;;;;28.52;2.38;;;;;;;;;;6094355;23;20235;-76
2022/01/27 05:06:02;;;;;;;134.57;5.30;;;;;;;;;;6093799;23;20237;-76
2022/01/27 05:08:28;;;;;;;52.42;3.00;;;2.80;42.30;;;;;;6093979;23;20275;-76
2022/01/27 05:11:06;;;;;;;49.17;2.80;;;;;;;;;;6093778;23;20196;-76
2022/01/27 05:13:40;;;;;;;49.75;3.15;;;3.00;41.00;;;;;;6093869;23;20707;-76
2022/01/27 05:16:06;;;;;;;194.27;6.90;;;;;;;;;;6093789;23;20147;-75
2022/01/27 05:18:32;;;;;;;65.07;2.78;;;3.50;39.80;;;;;;6095937;23;20213;-75
2022/01/27 05:20:58;;;;;;;56.13;2.73;;;3.40;39.20;;;;;;6094501;23;20151;-75
2022/01/27 05:23:24;;;;;;;57.83;3.10;;;;;;;;;;6093560;23;20185;-74
2022/01/27 05:25:50;;;;;;;71.32;3.95;;;;;;;;;;6112930;23;20161;-74
2022/01/27 05:28:16;;;;;;;72.95;4.63;;;;;;;;;;6154861;23;20157;-75
2022/01/27 05:30:42;;;;;;;47.22;3.00;;;;;;;;;;6128839;23;20172;-75
2022/01/27 05:33:10;;;;;;;44.90;2.60;;;;;;;;;;6155324;23;20501;-75
2022/01/27 05:35:36;;;;;;;40.75;2.72;;;;;;;;;;6154859;23;20150;-74
2022/01/27 05:38:03;;;;;;;42.38;2.17;;;3.00;40.00;;;;;;6154617;23;20175;-75
2022/01/27 05:40:28;;;;;;;95.32;3.85;;;2.90;40.10;;;;;;6154989;23;20146;-75
2022/01/27 05:42:54;;;;;;;43.03;2.80;;;;;;;;;;6155206;23;20169;-73
2022/01/27 05:45:20;;;;;;;74.07;3.03;;;2.60;42.40;;;;;;6155325;23;20372;-75
2022/01/27 05:47:46;;;;;;;38.97;2.67;;;1.60;46.40;;;;;;6157276;23;20219;-75
2022/01/27 05:50:13;;;;;;;79.78;3.70;;;;;;;;;;6162139;23;20145;-75
2022/01/27 05:52:39;;;;;;;41.55;4.05;;;;;;;;;;6161978;23;20173;-75
2022/01/27 05:55:05;;;;;;;63.92;4.60;;;2.50;43.30;;;;;;6163105;23;20146;-75
2022/01/27 05:57:31;;;;;;;65.25;3.08;;;2.60;42.60;;;;;;6162052;23;20201;-76
2022/01/27 05:59:57;;;;;;;42.80;4.60;;;2.70;42.50;;;;;;6163220;23;20157;-77
2022/01/27 06:02:23;;;;;;;60.50;4.70;;;;;;;;;;6162708;23;20480;-75
2022/01/27 06:04:49;;;;;;;84.38;4.07;;;2.40;42.40;;;;;;6131941;23;20161;-75
2022/01/27 06:07:15;;;;;;;57.67;3.83;;;;;;;;;;6155516;23;20161;-75
2022/01/27 06:09:41;;;;;;;38.70;2.60;;;;;;;;;;6156213;23;20156;-76
2022/01/27 06:12:07;;;;;;;26.55;1.90;;;;;;;;;;6156020;23;20181;-75
2022/01/27 06:14:33;;;;;;;43.15;2.67;;;;;;;;;;6155994;23;20145;-75
2022/01/27 06:16:59;;;;;;;29.47;3.00;;;;;;;;;;6155007;23;20149;-75
2022/01/27 06:19:27;;;;;;;67.13;3.70;;;;;;;;;;6154913;23;20444;-76
2022/01/27 06:21:53;;;;;;;46.88;3.33;;;;;;;;;;6155576;23;20150;-76
2022/01/27 06:24:19;;;;;;;92.93;4.60;;;;;;;;;;6155898;23;20241;-76
2022/01/27 06:26:45;;;;;;;82.50;3.63;;;;;;;;;;6129015;23;20168;-76
2022/01/27 06:29:11;;;;;;;48.10;4.40;;;;;;;;;;6155579;23;20153;-75
2022/01/27 06:31:37;;;;;;;53.67;5.03;;;;;;;;;;6155272;23;20245;-76
2022/01/27 06:34:03;;;;;;;78.93;5.22;;;;;;;;;;6155194;23;20180;-77
2022/01/27 06:36:29;;;;;;;82.63;4.25;;;2.60;40.90;;;;;;6155379;23;20157;-76
2022/01/27 06:38:55;;;;;;;48.87;3.00;;;2.50;41.00;;;;;;6161717;23;20165;-74
2022/01/27 06:41:20;;;;;;;59.73;3.23;;;2.40;41.20;;;;;;6162770;23;20228;-76
2022/01/27 06:43:46;;;;;;;59.37;3.20;;;;;;;;;;6154592;23;20165;-75
2022/01/27 06:46:12;;;;;;;120.30;4.95;;;;;;;;;;6153758;23;20200;-75
2022/01/27 06:48:38;;;;;;;52.55;2.67;;;;;;;;;;6154473;23;20180;-75
2022/01/27 06:51:05;;;;;;;60.05;5.28;;;;;;;;;;6158010;23;20153;-73
2022/01/27 06:53:31;;;;;;;44.92;5.05;;;2.70;40.30;;;;;;6155492;23;20204;-75
2022/01/27 06:55:57;;;;;;;37.30;1.95;;;2.60;40.70;;;;;;6154069;23;20625;-76
2022/01/27 06:58:23;;;;;;;48.22;2.72;;;;;;;;;;6153918;23;20303;-75
2022/01/27 07:00:49;;;;;;;60.45;3.38;;;2.00;42.80;;;;;;6154162;23;20173;-75
2022/01/27 07:03:15;;;;;;;84.00;5.30;;;1.60;44.40;;;;;;6154751;23;20248;-75
2022/01/27 07:05:41;;;;;;;58.43;2.73;;;;;;;;;;6154393;23;20149;-75
2022/01/27 07:08:08;;;;;;;69.75;3.33;;;1.40;45.80;;;;;;6153885;23;20184;-75
2022/01/27 07:10:33;;;;;;;59.50;3.25;;;1.40;44.30;;;;;;6155913;23;20149;-76
2022/01/27 07:12:59;;;;;;;42.30;2.97;;;;;;;;;;6153773;23;20512;-75
2022/01/27 07:15:27;;;;;;;81.68;4.50;;;1.90;43.60;;;;;;6154225;23;20181;-75
2022/01/27 07:17:53;;;;;;;57.40;4.10;;;2.40;41.50;;;;;;6154544;23;20174;-75
2022/01/27 07:20:19;;;;;;;47.93;3.30;;;;;;;;;;6129309;23;20497;-75
2022/01/27 07:22:45;;;;;;;40.58;2.70;;;;;;;;;;6154295;23;20733;-75
2022/01/27 07:25:11;;;;;;;79.82;3.67;;;;;;;;;;6133099;23;20153;-75
2022/01/27 07:27:37;;;;;;;51.28;2.30;;;;;;;;;;6154048;23;20562;-74
2022/01/27 07:30:04;;;;;;;53.30;4.95;;;;;;;;;;6154448;23;20596;-74
2022/01/27 07:32:30;;;;;;;87.53;4.95;;;;;;;;;;6154155;23;20173;-76
2022/01/27 07:34:56;;;;;;;38.88;3.55;;;2.60;40.10;;;;;;6154568;23;20318;-76
2022/01/27 07:37:22;;;;;;;52.70;4.03;;;;;;;;;;6153787;23;20169;-76
2022/01/27 07:39:48;;;;;;;38.67;2.97;;;;;;;;;;6154242;23;20635;-74
2022/01/27 07:42:14;;;;;;;46.72;2.78;;;;;;;;;;6153916;23;20169;-74
2022/01/27 07:44:40;;;;;;;39.15;3.10;;;;;;;;;;6154404;23;20145;-76
2022/01/27 07:47:06;;;;;;;72.47;4.75;;;;;;;;;;6153338;23;20665;-76
2022/01/27 07:49:33;;;;;;;40.90;2.28;;;2.60;40.40;;;;;;6127858;23;20164;-77
2022/01/27 07:51:59;;;;;;;39.42;2.65;;;;;;;;;;6154075;23;20153;-75
2022/01/27 07:54:25;;;;;;;62.33;3.05;;;2.50;40.20;;;;;;6154036;23;20157;-76
2022/01/27 07:56:51;;;;;;;49.13;2.90;;;;;;;;;;6153232;23;20649;-75
2022/01/27 07:59:17;;;;;;;80.45;4.03;;;;;;;;;;6153710;23;20153;-76
2022/01/27 08:01:43;;;;;;;34.88;3.42;;;;;;;;;;6153718;23;20591;-76
2022/01/27 08:04:11;;;;;;;126.93;4.47;;;;;;;;;;6153671;23;20157;-76
2022/01/27 08:06:37;;;;;;;45.58;2.92;;;3.10;38.40;;;;;;6127694;23;20629;-76
2022/01/27 08:09:03;;;;;;;70.35;3.35;;;3.10;38.70;;;;;;6153552;23;20153;-76
2022/01/27 08:11:29;;;;;;;52.83;3.43;;;3.10;38.80;;;;;;6153425;23;20153;-76
2022/01/27 08:13:55;;;;;;;47.17;3.80;;;;;;;;;;6153476;23;20189;-74
2022/01/27 08:16:21;;;;;;;58.67;3.67;;;;;;;;;;6153200;23;20157;-75
2022/01/27 08:18:47;;;;;;;25.08;2.25;;;;;;;;;;6153824;23;20212;-74
2022/01/27 08:21:13;;;;;;;53.42;3.35;;;;;;;;;;6153567;23;20486;-75
2022/01/27 08:23:41;;;;;;;42.35;2.47;;;;;;;;;;6154202;23;20236;-75
2022/01/27 08:26:10;;;;;;;114.32;4.53;;;3.20;37.00;;;;;;6155251;23;20173;-76
2022/01/27 08:28:45;;;;;;;45.97;2.13;;;3.30;37.50;;;;;;6155578;23;20154;-76
2022/01/27 08:31:13;;;;;;;64.00;3.67;;;;;;;;;;6155847;23;20686;-76
2022/01/27 08:33:40;;;;;;;61.65;3.15;;;;;;;;;;6155632;23;20215;-75
2022/01/27 08:36:07;;;;;;;131.70;4.97;;;3.50;37.50;;;;;;6155425;23;20154;-76
2022/01/27 08:38:32;;;;;;;57.90;3.10;;;3.30;37.60;;;;;;6155160;23;20196;-75
2022/01/27 08:41:01;;;;;;;44.40;3.30;;;3.10;38.70;;;;;;6155510;23;20177;-75
2022/01/27 08:43:27;;;;;;;71.10;3.33;;;3.40;38.00;;;;;;6155321;23;20200;-76
2022/01/27 08:45:53;;;;;;;53.97;2.73;;;3.30;38.30;;;;;;6155434;23;20520;-75
2022/01/27 08:48:20;;;;;;;77.20;5.13;;;3.30;38.30;;;;;;6155161;23;20146;-75
2022/01/27 08:50:58;;;;;;;46.97;4.10;;;3.60;37.80;;;;;;6155843;23;20150;-75
2022/01/27 08:53:25;;;;;;;37.83;2.97;;;;;;;;;;6128903;23;20180;-74
2022/01/27 08:55:51;;;;;;;47.95;2.60;;;2.40;40.50;;;;;;6155557;23;20490;-76
2022/01/27 08:58:17;;;;;;;85.05;3.20;;;2.30;42.30;;;;;;6159930;23;20180;-75
2022/01/27 09:00:43;;;;;;;50.27;2.50;;;2.90;40.50;;;;;;6155112;23;20153;-75
2022/01/27 09:03:08;;;;;;;69.37;3.30;;;2.90;41.30;;;;;;6154873;23;20169;-75
2022/01/27 09:05:35;;;;;;;39.07;2.90;;;;;;;;;;6155259;23;20416;-75
2022/01/27 09:08:01;;;;;;;68.95;3.50;;;3.00;40.60;;;;;;6155396;23;20638;-75
2022/01/27 09:10:31;;;;;;;88.70;3.58;;;3.10;39.40;;;;;;6154943;23;20160;-75
2022/01/27 09:12:58;;;;;;;64.78;3.13;;;2.90;40.90;;;;;;6155335;23;20192;-75
2022/01/27 09:15:24;;;;;;;75.88;3.97;;;3.50;38.90;;;;;;6156358;23;20285;-77
2022/01/27 09:17:50;;;;;;;55.30;3.40;;;;;;;;;;6128478;23;20285;-75
2022/01/27 09:20:16;;;;;;;81.68;5.63;;;3.20;40.00;;;;;;6153218;23;20179;-77
2022/01/27 09:22:43;;;;;;;42.85;2.78;;;;;;;;;;6128290;23;20665;-77
2022/01/27 09:25:22;;;;;;;69.80;3.20;;;;;;;;;;6155392;23;20154;-77
2022/01/27 09:27:48;;;;;;;58.88;2.90;;;3.10;41.00;;;;;;6154601;23;20133;-75
2022/01/27 09:30:17;;;;;;;109.37;5.63;;;;;;;;;;6154143;23;20161;-75
2022/01/27 09:32:43;;;;;;;56.40;4.18;;;;;;;;;;6155839;23;20393;-75
2022/01/27 09:35:09;;;;;;;91.63;4.03;;;;;;;;;;6154277;23;20235;-75
2022/01/27 09:37:35;;;;;;;24.58;3.97;;;;;;;;;;6154406;23;20668;-74
2022/01/27 09:40:01;;;;;;;41.25;3.47;;;;;;;;;;6154438;23;20154;-74
2022/01/27 09:42:31;;;;;;;68.20;3.28;;;;;;;;;;6152351;23;20169;-73
2022/01/27 09:45:01;;;;;;;61.53;4.38;;;3.50;40.10;;;;;;6161574;23;20145;-76
2022/01/27 09:47:30;;;;;;;37.95;2.38;;;;;;;;;;6156316;23;20149;-78
2022/01/27 09:50:07;;;;;;;77.50;3.83;;;4.10;38.30;;;;;;6157039;23;20665;-77
2022/01/27 09:52:33;;;;;;;67.88;4.38;;;;;;;;;;6157302;23;20169;-76
2022/01/27 09:54:59;;;;;;;55.25;5.05;;;;;;;;;;6167069;23;20182;-76
2022/01/27 09:57:25;;;;;;;53.40;3.78;;;;;;;;;;6158136;23;20181;-78
2022/01/27 09:59:51;;;;;;;51.53;3.30;;;;;;;;;;6158884;23;20142;-77
2022/01/27 10:02:21;;;;;;;100.73;4.10;;;3.60;37.50;;;;;;6156289;23;20169;-80
2022/01/27 10:04:57;;;;;;;39.50;4.70;;;3.30;39.00;;;;;;6172097;23;20369;-75
2022/01/27 10:07:26;;;;;;;61.53;3.50;;;;;;;;;;6172854;23;20141;-77
2022/01/27 10:09:58;;;;;;;64.72;2.95;;;;;;;;;;6173114;23;20181;-75
2022/01/27 10:12:30;;;;;;;66.38;3.35;;;3.60;38.30;;;;;;6137146;23;20220;-75
2022/01/27 10:15:00;;;;;;;65.35;2.75;;;;;;;;;;6155153;23;20149;-76
2022/01/27 10:17:28;;;;;;;90.00;5.28;;;;;;;;;;6129047;23;20178;-75
2022/01/27 10:19:55;;;;;;;61.97;3.90;;;;;;;;;;6157536;23;20145;-74
2022/01/27 10:22:21;;;;;;;126.80;5.13;;;3.90;38.50;;;;;;6164770;23;20212;-76
2022/01/27 10:24:58;;;;;;;59.10;3.60;;;;;;;;;;6167657;23;20150;-76
2022/01/27 10:27:55;;;;;;;76.03;3.15;;;4.20;36.70;;;;;;6172390;23;20133;-77
2022/01/27 10:32:53;;;;;;;63.83;3.90;;;4.50;36.20;;;;;;6167562;23;20173;-77
2022/01/27 10:35:25;;;;;;;62.00;3.83;;;4.30;37.00;;;;;;6160919;23;20156;-75
2022/01/27 10:38:07;;;;;;;71.28;4.57;;;4.50;35.60;;;;;;6157461;23;20180;-77
2022/01/27 10:40:41;;;;;;;63.40;3.80;;;;;;;;;;6156157;23;20180;-78
2022/01/27 10:43:13;;;;;;;75.88;4.30;;;3.50;39.50;;;;;;6155036;23;20188;-76
2022/01/27 10:46:06;;;;;;;46.25;3.03;;;;;;;;;;6155196;23;20145;-75
2022/01/27 10:48:35;;;;;;;58.67;2.90;;;;;;;;;;6154231;23;20137;-77
2022/01/27 10:53:50;;;;;;;52.37;2.50;;;3.80;39.40;;;;;;6159438;23;20510;-75
2022/01/27 10:56:18;;;;;;;85.82;3.70;;;;;;;;;;6133247;23;20154;-76
2022/01/27 10:58:44;;;;;;;68.75;4.07;;;;;;;;;;6159906;23;20169;-76
2022/01/27 11:01:11;;;;;;;64.10;2.88;;;5.70;34.20;;;;;;6159070;23;20156;-76
2022/01/27 11:03:36;;;;;;;27.73;2.22;;;5.50;33.00;;;;;;6157610;23;20529;-77
2022/01/27 11:06:09;;;;;;;134.67;6.30;;;6.10;31.90;;;;;;6158701;23;20146;-76
2022/01/27 11:08:36;;;;;;;49.53;2.75;;;;;;;;;;6133486;23;20239;-77
2022/01/27 11:11:03;;;;;;;64.65;3.55;;;5.30;32.50;;;;;;6158268;23;20153;-75
2022/01/27 11:13:29;;;;;;;53.40;2.70;;;5.20;33.50;;;;;;6159641;23;20196;-76
2022/01/27 11:15:55;;;;;;;93.33;4.30;;;;;;;;;;6161486;23;20154;-76
2022/01/27 11:18:25;;;;;;;84.78;4.15;;;;;;;;;;6156809;23;20177;-76
2022/01/27 11:20:59;;;;;;;71.60;3.25;;;4.80;34.50;;;;;;6156728;23;20145;-76
2022/01/27 11:25:55;;;;;;;138.82;5.05;;;;;;;;;;6156870;23;20354;-76
2022/01/27 11:28:22;;;;;;;92.60;5.20;;;5.20;33.60;;;;;;6157012;23;20153;-76
2022/01/27 11:31:07;;;;;;;86.57;4.97;;;;;;;;;;6158637;23;20179;-76
2022/01/27 11:33:34;;;;;;;62.45;4.70;;;;;;;;;;6157323;23;20173;-76
2022/01/27 11:36:07;;;;;;;83.03;4.00;;;;;;;;;;6156487;23;20173;-72
2022/01/27 11:38:33;;;;;;;49.15;3.05;;;;;;;;;;6130421;23;20502;-75
2022/01/27 11:40:59;;;;;;;79.32;3.80;;;;;;;;;;6157185;23;20564;-75
2022/01/27 11:43:33;;;;;;;49.30;3.30;;;;;;;;;;6131581;23;20177;-75
2022/01/27 11:46:11;;;;;;;54.90;2.47;;;;;;;;;;6131763;23;20433;-76
2022/01/27 11:48:37;;;;;;;68.35;3.97;;;;;;;;;;6157853;23;20141;-76
2022/01/27 11:51:09;;;;;;;54.80;3.70;;;;;;;;;;6187520;22;20286;-81
2022/01/27 11:53:45;;;;;;;26.67;3.60;;;;;;;;;;6246551;22;20495;-82
2022/01/27 11:56:33;;;;;;;150.68;6.13;;;;;;;;;;6246660;23;20131;-81
2022/01/27 11:59:01;;;;;;;74.47;3.75;;;;;;;;;;6246976;23;20559;-81
2022/01/27 12:01:35;;;;;;;81.30;4.40;;;7.40;29.60;;;;;;6248648;23;20241;-82
2022/01/27 12:04:07;;;;;;;75.07;4.80;;;;;;;;;;6248790;22;20147;-81
2022/01/27 12:06:37;;;;;;;184.65;6.18;;;;;;;;;;6248327;22;20209;-82
2022/01/27 12:09:21;;;;;;;78.15;3.50;;;7.90;29.40;;;;;;6248550;23;20611;-81
2022/01/27 12:11:51;;;;;;;59.05;3.13;;;;;;;;;;6248858;23;20511;-81
2022/01/27 12:14:21;;;;;;;72.28;2.90;;;;;;;;;;6249005;22;20152;-81
2022/01/27 12:17:06;;;;;;;75.00;4.93;;;;;;;;;;6248169;22;20132;-82
2022/01/27 12:19:46;;;;;;;35.33;3.03;;;;;;;;;;6248026;23;20205;-81
2022/01/27 12:22:15;;;;;;;82.10;3.10;;;;;;;;;;6248319;22;20225;-82
2022/01/27 12:25:02;;;;;;;41.13;2.72;;;8.70;28.00;;;;;;6246669;22;20158;-82
2022/01/27 12:27:30;;;;;;;82.30;4.47;;;8.30;27.80;;;;;;6245437;22;20619;-82
2022/01/27 12:29:58;;;;;;;61.88;3.00;;;8.60;27.90;;;;;;6245725;22;20623;-81
2022/01/27 12:32:31;;;;;;;91.13;3.67;;;8.50;28.00;;;;;;6244364;22;20735;-82
2022/01/27 12:35:01;;;;;;;95.22;3.45;;;;;;;;;;6245453;22;20137;-82
2022/01/27 12:37:34;;;;;;;76.60;3.55;;;;;;;;;;6244973;23;20171;-82
2022/01/27 12:40:18;;;;;;;72.32;4.00;;;8.90;28.00;;;;;;6244751;22;20283;-82
2022/01/27 12:43:00;;;;;;;46.80;2.40;;;;;;;;;;6245798;22;20495;-82
2022/01/27 12:45:34;;;;;;;62.58;3.17;;;9.30;28.20;;;;;;6244886;22;20212;-82
2022/01/27 12:48:04;;;;;;;70.05;3.40;;;;;;;;;;6243545;22;20136;-82
2022/01/27 12:50:31;;;;;;;52.75;3.10;;;;;;;;;;6244996;22;20559;-82
2022/01/27 12:53:01;;;;;;;48.70;3.00;;;;;;;;;;6244291;23;20147;-82
2022/01/27 12:55:31;;;;;;;60.87;3.40;;;;;;;;;;6247976;22;20147;-82
2022/01/27 12:58:02;;;;;;;61.73;3.20;;;10.50;25.20;;;;;;6247048;23;20413;-81
2022/01/27 13:00:30;;;;;;;70.95;3.55;;;;;;;;;;6247053;23;20409;-82
2022/01/27 13:03:00;;;;;;;48.70;2.60;;;;;;;;;;6243766;22;20154;-82
2022/01/27 13:05:33;;;;;;;35.40;2.57;;;;;;;;;;6247569;23;20370;-81
2022/01/27 13:08:01;;;;;;;66.77;3.30;;;;;;;;;;6246405;22;20382;-82
2022/01/27 13:10:27;;;;;;;82.20;4.27;;;;;;;;;;6245497;23;20386;-82
2022/01/27 13:12:56;;;;;;;45.43;2.43;;;;;;;;;;6249452;23;20436;-81
2022/01/27 13:15:25;;;;;;;55.00;3.50;;;;;;;;;;6246630;22;20428;-82
2022/01/27 13:18:03;;;;;;;41.30;3.10;;;;;;;;;;6247688;22;20444;-82
2022/01/27 13:21:06;;;;;;;62.55;3.15;;;8.50;29.70;;;;;;6247182;22;20405;-81
2022/01/27 13:26:02;;;;;;;66.35;3.72;;;;;;;;;;6255009;23;20143;-82
2022/01/27 13:28:34;;;;;;;53.83;3.45;;;;;;;;;;6250078;22;20215;-81
2022/01/27 13:31:05;;;;;;;48.03;3.33;;;8.80;30.60;;;;;;6254742;22;20170;-82
2022/01/27 13:33:36;;;;;;;50.72;3.00;;;8.50;30.70;;;;;;6255331;22;20190;-82
2022/01/27 13:36:02;;;;;;;94.25;4.50;;;;;;;;;;6254048;22;20188;-81
2022/01/27 13:38:37;;;;;;;127.43;4.20;;;;;;;;;;6253567;23;20181;-81
2022/01/27 13:41:17;;;;;;;119.45;4.82;;;;;;;;;;6253774;22;20166;-82
2022/01/27 13:43:50;;;;;;;52.35;2.85;;;;;;;;;;6254934;22;20132;-81
2022/01/27 13:46:35;;;;;;;108.63;4.03;;;;;;;;;;6253772;23;20173;-84
2022/01/27 13:49:19;;;;;;;45.33;2.70;;;8.10;33.10;;;;;;6252328;23;20191;-81
2022/01/27 13:51:58;;;;;;;49.67;2.35;;;;;;;;;;6272714;22;20201;-81
2022/01/27 13:54:30;;;;;;;96.15;3.72;;;;;;;;;;6274060;22;20155;-82
2022/01/27 13:57:02;;;;;;;66.70;3.28;;;;;;;;;;6273232;22;20138;-82
2022/01/27 13:59:54;;;;;;;95.80;3.70;;;11.00;26.50;;;;;;6254577;23;20143;-80
2022/01/27 14:02:22;;;;;;;87.65;3.33;;;;;;;;;;6252166;22;20166;-82
2022/01/27 14:04:52;;;;;;;39.40;2.33;;;;;;;;;;6247040;23;20151;-81
2022/01/27 14:07:27;;;;;;;70.70;3.58;;;;;;;;;;6250103;23;20354;-81
2022/01/27 14:09:53;;;;;;;76.33;3.07;;;;;;;;;;6250053;23;20177;-81
2022/01/27 14:12:24;;;;;;;93.47;3.95;;;;;;;;;;6248343;22;20444;-80
2022/01/27 14:14:51;;;;;;;51.75;2.42;;;;;;;;;;6249157;22;20131;-82
2022/01/27 14:17:21;;;;;;;97.57;4.00;;;;;;;;;;6246907;23;20181;-81
2022/01/27 14:19:47;;;;;;;62.50;4.22;;;;;;;;;;6247558;23;20183;-81
2022/01/27 14:22:16;;;;;;;110.57;3.93;;;;;;;;;;6249220;23;20167;-82
2022/01/27 14:24:58;;;;;;;93.33;4.17;;;12.10;25.20;;;;;;6250721;22;20370;-81
2022/01/27 14:27:32;;;;;;;123.77;4.27;;;;;;;;;;6247840;22;20351;-81
2022/01/27 14:29:58;;;;;;;103.00;4.27;;;;;;;;;;6248362;22;20678;-81
2022/01/27 14:32:24;;;;;;;125.37;4.40;;;;;;;;;;6245385;23;20414;-81
2022/01/27 14:34:50;;;;;;;68.13;3.67;;;;;;;;;;6244432;23;20366;-81
2022/01/27 14:37:16;;;;;;;121.83;5.20;;;;;;;;;;6243573;23;20378;-82
2022/01/27 14:39:42;;;;;;;108.03;4.63;;;;;;;;;;6250840;23;20372;-80
2022/01/27 14:42:10;;;;;;;135.13;4.30;;;;;;;;;;6244130;23;20416;-80
2022/01/27 14:44:36;;;;;;;87.83;4.27;;;;;;;;;;6245499;22;20439;-81
2022/01/27 14:47:05;;;;;;;53.00;3.03;;;;;;;;;;6246432;23;20371;-81
2022/01/27 14:49:32;;;;;;;63.47;3.20;;;;;;;;;;6243922;23;20764;-79